Touho Airport
NWWU : now visible

Airfield :











YOU CAN JOIN US ON...

 
LOGIN :

Register | Disclaimer

   EN    FR    IT 

 









Legend :    VFR   Marginal VFR   IFR   Intensive IFR   Very Intensive IFR
Visi :
Ceiling :
>= 8 km
>= 3000ft
5 to 8 km
1000 to 3000 ft
1500m to 5 km
500 to 1000 ft
800 to 1500m
200 to 500 ft
< 800m
< 200 ft
Symbols :   Thunderstorms  Fog  Heavy snow  Heavy precipitations  Wind > 20 kt






- Airport Elevation : 10 ft
- IATA code : TOU


NWWU - Touho

METAR N/A
TAF TAF NWWU
Valid from the 29 at 18:00 until the 30 at 18:00 UTC


291700Z 2918/3018 VRB02KT 9999 BKN016 BKN040
TEMPO 2918/3003 4000 SHRA BKN014 FEW020TCU
TEMPO 3003/3018 4000 SHRA BKN012 FEW020CB
PROB40
TEMPO 3008/3018 1500 +TSRA BKN008 SCT016CB
NFFF FIR / Oceania



MET'MAP, your aeronautical weather chart ! - Copyright ORBIFLY December 2007 - Disclaimer

ORBIFLY MET'MAP TEAM :

Programming & Development : Alexandra Zaïnal
Concept & original design : Baudouin d'Aumeries
Assistance for programming : Marc-Olivier Méhu
Technical & hardware support : Manuel Goepfert

Contact : metmap@orbifly.com




SOURCES & CREDITS :

   NOAA       Earth
Advisory